sensor_id;sensor_type;location;lat;lon;timestamp;pressure;altitude;pressure_sealevel;temperature;humidity
21594;BME280;10959;51.328;7.322;2023-02-20T00:01:32;99727.09;;;8.37;80.17
21594;BME280;10959;51.328;7.322;2023-02-20T00:03:58;99722.69;;;8.36;80.09
21594;BME280;10959;51.328;7.322;2023-02-20T00:06:25;99728.03;;;8.36;80.52
21594;BME280;10959;51.328;7.322;2023-02-20T00:08:51;99715.53;;;8.35;80.46
21594;BME280;10959;51.328;7.322;2023-02-20T00:11:19;99713.84;;;8.31;80.21
21594;BME280;10959;51.328;7.322;2023-02-20T00:13:46;99712.03;;;8.31;80.19
21594;BME280;10959;51.328;7.322;2023-02-20T00:16:13;99704.13;;;8.27;80.44
21594;BME280;10959;51.328;7.322;2023-02-20T00:18:40;99696.06;;;8.27;80.20
21594;BME280;10959;51.328;7.322;2023-02-20T00:21:06;99698.78;;;8.25;80.16
21594;BME280;10959;51.328;7.322;2023-02-20T00:23:33;99696.16;;;8.24;80.29
21594;BME280;10959;51.328;7.322;2023-02-20T00:25:59;99694.38;;;8.23;80.54
21594;BME280;10959;51.328;7.322;2023-02-20T00:28:27;99686.38;;;8.21;80.62
21594;BME280;10959;51.328;7.322;2023-02-20T00:30:55;99682.84;;;8.19;81.15
21594;BME280;10959;51.328;7.322;2023-02-20T00:33:21;99682.03;;;8.16;80.67
21594;BME280;10959;51.328;7.322;2023-02-20T00:35:48;99680.22;;;8.18;81.08
21594;BME280;10959;51.328;7.322;2023-02-20T00:38:14;99682.84;;;8.19;80.94
21594;BME280;10959;51.328;7.322;2023-02-20T00:40:41;99680.22;;;8.18;80.95
21594;BME280;10959;51.328;7.322;2023-02-20T00:43:08;99673.03;;;8.18;81.29
21594;BME280;10959;51.328;7.322;2023-02-20T00:45:35;99678.38;;;8.20;81.00
21594;BME280;10959;51.328;7.322;2023-02-20T00:48:02;99676.59;;;8.19;81.31
21594;BME280;10959;51.328;7.322;2023-02-20T00:50:29;99674.94;;;8.15;81.58
21594;BME280;10959;51.328;7.322;2023-02-20T00:52:55;99680.22;;;8.18;81.25
21594;BME280;10959;51.328;7.322;2023-02-20T00:55:21;99673.09;;;8.17;81.62
21594;BME280;10959;51.328;7.322;2023-02-20T00:57:48;99660.59;;;8.16;81.51
21594;BME280;10959;51.328;7.322;2023-02-20T01:00:27;99667.22;;;8.01;81.99
21594;BME280;10959;51.328;7.322;2023-02-20T01:02:55;99664.25;;;8.11;82.33
21594;BME280;10959;51.328;7.322;2023-02-20T01:05:22;99664.13;;;8.18;81.74
21594;BME280;10959;51.328;7.322;2023-02-20T01:07:48;99664.13;;;8.18;81.99
21594;BME280;10959;51.328;7.322;2023-02-20T01:10:15;99665.84;;;8.19;82.20
21594;BME280;10959;51.328;7.322;2023-02-20T01:12:41;99653.31;;;8.21;82.47
21594;BME280;10959;51.328;7.322;2023-02-20T01:15:10;99648.84;;;8.20;82.41
21594;BME280;10959;51.328;7.322;2023-02-20T01:17:36;99647.94;;;8.21;82.08
21594;BME280;10959;51.328;7.322;2023-02-20T01:20:05;99641.84;;;8.14;82.44
21594;BME280;10959;51.328;7.322;2023-02-20T01:22:33;99633.75;;;8.16;82.69
21594;BME280;10959;51.328;7.322;2023-02-20T01:24:59;99615.84;;;8.18;82.94
21594;BME280;10959;51.328;7.322;2023-02-20T01:27:26;99610.69;;;8.08;82.49
21594;BME280;10959;51.328;7.322;2023-02-20T01:29:52;99615.16;;;8.09;83.38
21594;BME280;10959;51.328;7.322;2023-02-20T01:32:19;99623.19;;;8.09;83.47
21594;BME280;10959;51.328;7.322;2023-02-20T01:34:45;99623.09;;;8.12;83.23
21594;BME280;10959;51.328;7.322;2023-02-20T01:37:13;99615.94;;;8.13;82.70
21594;BME280;10959;51.328;7.322;2023-02-20T01:39:41;99617.75;;;8.12;83.09
21594;BME280;10959;51.328;7.322;2023-02-20T01:42:12;99623.19;;;8.09;83.19
21594;BME280;10959;51.328;7.322;2023-02-20T01:44:41;99615.91;;;8.15;82.90
21594;BME280;10959;51.328;7.322;2023-02-20T01:47:09;99615.84;;;8.18;82.97
21594;BME280;10959;51.328;7.322;2023-02-20T01:49:40;99615.84;;;8.18;82.84
21594;BME280;10959;51.328;7.322;2023-02-20T01:52:14;99612.47;;;8.09;82.85
21594;BME280;10959;51.328;7.322;2023-02-20T01:54:44;99605.25;;;8.11;83.17
21594;BME280;10959;51.328;7.322;2023-02-20T01:57:15;99594.59;;;8.08;83.52
21594;BME280;10959;51.328;7.322;2023-02-20T01:59:43;99592.69;;;8.13;83.17
21594;BME280;10959;51.328;7.322;2023-02-20T02:02:10;99597.16;;;8.13;83.03
21594;BME280;10959;51.328;7.322;2023-02-20T02:04:38;99583.88;;;8.08;83.39
21594;BME280;10959;51.328;7.322;2023-02-20T02:07:05;99592.69;;;8.13;83.45
21594;BME280;10959;51.328;7.322;2023-02-20T02:09:38;99594.69;;;8.05;83.15
21594;BME280;10959;51.328;7.322;2023-02-20T02:12:07;99598.94;;;8.14;83.13
21594;BME280;10959;51.328;7.322;2023-02-20T02:14:33;99593.56;;;8.14;83.34
21594;BME280;10959;51.328;7.322;2023-02-20T02:23:42;99560.50;;;7.81;82.81
21594;BME280;10959;51.328;7.322;2023-02-20T02:26:32;99556.03;;;7.79;83.45
21594;BME280;10959;51.328;7.322;2023-02-20T02:29:22;99559.56;;;7.82;82.92
21594;BME280;10959;51.328;7.322;2023-02-20T02:32:20;99540.03;;;7.76;83.13
21594;BME280;10959;51.328;7.322;2023-02-20T02:35:20;99536.66;;;7.68;83.55
21594;BME280;10959;51.328;7.322;2023-02-20T02:37:59;99537.09;;;7.86;83.21
21594;BME280;10959;51.328;7.322;2023-02-20T02:40:32;99526.22;;;7.92;83.39
21594;BME280;10959;51.328;7.322;2023-02-20T02:43:08;99516.59;;;7.85;83.50
21594;BME280;10959;51.328;7.322;2023-02-20T02:45:44;99514.72;;;7.87;83.51
21594;BME280;10959;51.328;7.322;2023-02-20T02:48:18;99518.28;;;7.89;83.38
21594;BME280;10959;51.328;7.322;2023-02-20T02:50:48;99514.56;;;7.93;83.53
21594;BME280;10959;51.328;7.322;2023-02-20T02:53:18;99516.22;;;7.97;83.43
21594;BME280;10959;51.328;7.322;2023-02-20T02:55:45;99514.44;;;7.98;83.43
21594;BME280;10959;51.328;7.322;2023-02-20T02:58:12;99512.53;;;8.01;83.47
21594;BME280;10959;51.328;7.322;2023-02-20T03:00:41;99529.50;;;8.03;82.91
21594;BME280;10959;51.328;7.322;2023-02-20T03:03:12;99524.13;;;8.03;83.13
21594;BME280;10959;51.328;7.322;2023-02-20T03:05:44;99526.72;;;8.06;83.21
21594;BME280;10959;51.328;7.322;2023-02-20T03:08:22;99519.13;;;7.89;82.85
21594;BME280;10959;51.328;7.322;2023-02-20T03:10:59;99515.31;;;7.98;83.16
21594;BME280;10959;51.328;7.322;2023-02-20T03:13:30;99510.88;;;7.97;83.19
21594;BME280;10959;51.328;7.322;2023-02-20T03:16:18;99484.22;;;7.91;82.76
21594;BME280;10959;51.328;7.322;2023-02-20T03:18:47;99502.00;;;7.95;82.88
21594;BME280;10959;51.328;7.322;2023-02-20T03:21:17;99509.28;;;7.90;82.81
21594;BME280;10959;51.328;7.322;2023-02-20T03:23:51;99506.91;;;7.79;83.34
21594;BME280;10959;51.328;7.322;2023-02-20T03:26:25;99499.66;;;7.83;83.58
21594;BME280;10959;51.328;7.322;2023-02-20T03:28:56;99491.88;;;7.73;83.62
21594;BME280;10959;51.328;7.322;2023-02-20T03:31:29;99499.88;;;7.75;83.75
21594;BME280;10959;51.328;7.322;2023-02-20T03:34:04;99493.66;;;7.73;83.58
21594;BME280;10959;51.328;7.322;2023-02-20T03:36:50;99486.41;;;7.76;84.18
21594;BME280;10959;51.328;7.322;2023-02-20T03:39:41;99499.91;;;7.73;83.74
21594;BME280;10959;51.328;7.322;2023-02-20T03:42:28;99478.34;;;7.78;84.06
21594;BME280;10959;51.328;7.322;2023-02-20T03:45:15;99489.88;;;7.82;83.68
21594;BME280;10959;51.328;7.322;2023-02-20T03:47:44;99491.50;;;7.86;83.90
21594;BME280;10959;51.328;7.322;2023-02-20T03:50:13;99491.59;;;7.83;84.04
21594;BME280;10959;51.328;7.322;2023-02-20T03:52:40;99479.88;;;7.87;84.07
21594;BME280;10959;51.328;7.322;2023-02-20T03:55:08;99482.66;;;7.84;83.69
21594;BME280;10959;51.328;7.322;2023-02-20T03:57:38;99488.19;;;7.77;83.59
21594;BME280;10959;51.328;7.322;2023-02-20T04:00:08;99488.91;;;7.83;83.69
21594;BME280;10959;51.328;7.322;2023-02-20T04:02:39;99473.78;;;7.82;83.93
21594;BME280;10959;51.328;7.322;2023-02-20T04:05:11;99477.53;;;7.74;83.50
21594;BME280;10959;51.328;7.322;2023-02-20T04:07:44;99468.47;;;7.78;83.59
21594;BME280;10959;51.328;7.322;2023-02-20T04:10:17;99466.75;;;7.77;83.61
21594;BME280;10959;51.328;7.322;2023-02-20T04:12:47;99472.00;;;7.81;84.05
21594;BME280;10959;51.328;7.322;2023-02-20T04:15:15;99482.06;;;7.72;84.39
21594;BME280;10959;51.328;7.322;2023-02-20T04:17:47;99479.38;;;7.72;83.65
21594;BME280;10959;51.328;7.322;2023-02-20T04:20:15;99481.00;;;7.78;84.02
21594;BME280;10959;51.328;7.322;2023-02-20T04:22:44;99484.66;;;7.75;83.57
21594;BME280;10959;51.328;7.322;2023-02-20T04:25:17;99477.47;;;7.77;83.79
21594;BME280;10959;51.328;7.322;2023-02-20T04:27:46;99472.88;;;7.81;83.97
21594;BME280;10959;51.328;7.322;2023-02-20T04:30:13;99477.28;;;7.84;83.44
21594;BME280;10959;51.328;7.322;2023-02-20T04:32:39;99471.09;;;7.82;83.86
21594;BME280;10959;51.328;7.322;2023-02-20T04:35:08;99468.47;;;7.78;83.07
21594;BME280;10959;51.328;7.322;2023-02-20T04:37:37;99468.47;;;7.78;83.77
21594;BME280;10959;51.328;7.322;2023-02-20T04:40:04;99452.34;;;7.82;83.04
21594;BME280;10959;51.328;7.322;2023-02-20T04:42:32;99456.16;;;7.71;83.52
21594;BME280;10959;51.328;7.322;2023-02-20T04:44:58;99459.78;;;7.70;83.90
21594;BME280;10959;51.328;7.322;2023-02-20T04:47:25;99442.72;;;7.73;83.96
21594;BME280;10959;51.328;7.322;2023-02-20T04:49:51;99446.97;;;7.80;83.22
21594;BME280;10959;51.328;7.322;2023-02-20T04:52:18;99445.28;;;7.77;83.26
21594;BME280;10959;51.328;7.322;2023-02-20T04:54:44;99439.84;;;7.81;83.04
21594;BME280;10959;51.328;7.322;2023-02-20T04:57:10;99439.94;;;7.77;82.96
21594;BME280;10959;51.328;7.322;2023-02-20T04:59:38;99438.06;;;7.79;82.97
21594;BME280;10959;51.328;7.322;2023-02-20T05:02:05;99431.78;;;7.81;83.52
21594;BME280;10959;51.328;7.322;2023-02-20T05:04:31;99428.25;;;7.78;83.50
21594;BME280;10959;51.328;7.322;2023-02-20T05:06:58;99436.25;;;7.82;82.76
21594;BME280;10959;51.328;7.322;2023-02-20T05:09:25;99430.25;;;7.72;82.97
21594;BME280;10959;51.328;7.322;2023-02-20T05:11:52;99427.69;;;7.67;83.40
21594;BME280;10959;51.328;7.322;2023-02-20T05:14:18;99433.03;;;7.67;83.45
21594;BME280;10959;51.328;7.322;2023-02-20T05:16:46;99429.53;;;7.65;83.37
21594;BME280;10959;51.328;7.322;2023-02-20T05:19:13;99422.31;;;7.67;83.40
21594;BME280;10959;51.328;7.322;2023-02-20T05:21:40;99423.25;;;7.66;83.47
21594;BME280;10959;51.328;7.322;2023-02-20T05:24:25;99416.97;;;7.67;83.93
21594;BME280;10959;51.328;7.322;2023-02-20T05:26:52;99409.06;;;7.63;83.64
21594;BME280;10959;51.328;7.322;2023-02-20T05:29:19;99409.97;;;7.63;83.77
21594;BME280;10959;51.328;7.322;2023-02-20T05:31:47;99402.44;;;7.43;83.84
21594;BME280;10959;51.328;7.322;2023-02-20T05:34:13;99398.56;;;7.55;84.30
21594;BME280;10959;51.328;7.322;2023-02-20T05:36:40;99397.47;;;7.62;83.67
21594;BME280;10959;51.328;7.322;2023-02-20T05:39:06;99394.78;;;7.62;84.05
21594;BME280;10959;51.328;7.322;2023-02-20T05:41:33;99409.78;;;7.69;83.28
21594;BME280;10959;51.328;7.322;2023-02-20T05:43:59;99400.81;;;7.70;83.00
21594;BME280;10959;51.328;7.322;2023-02-20T05:46:26;99407.91;;;7.71;83.22
21594;BME280;10959;51.328;7.322;2023-02-20T05:48:54;99404.41;;;7.69;82.94
21594;BME280;10959;51.328;7.322;2023-02-20T05:51:24;99399.91;;;7.70;83.04
21594;BME280;10959;51.328;7.322;2023-02-20T05:53:51;99403.66;;;7.64;83.44
21594;BME280;10959;51.328;7.322;2023-02-20T05:56:18;99408.00;;;7.68;83.80
21594;BME280;10959;51.328;7.322;2023-02-20T05:58:45;99397.47;;;7.62;83.67
21594;BME280;10959;51.328;7.322;2023-02-20T06:01:17;99401.25;;;7.55;83.50
21594;BME280;10959;51.328;7.322;2023-02-20T06:03:44;99404.59;;;7.63;83.20
21594;BME280;10959;51.328;7.322;2023-02-20T06:06:13;99404.66;;;7.60;83.55
21594;BME280;10959;51.328;7.322;2023-02-20T06:08:40;99388.56;;;7.60;83.80
21594;BME280;10959;51.328;7.322;2023-02-20T06:11:08;99388.50;;;7.63;83.39
21594;BME280;10959;51.328;7.322;2023-02-20T06:13:35;99392.25;;;7.56;84.15
21594;BME280;10959;51.328;7.322;2023-02-20T06:16:01;99378.22;;;7.48;84.18
21594;BME280;10959;51.328;7.322;2023-02-20T06:18:27;99383.22;;;7.60;83.68
21594;BME280;10959;51.328;7.322;2023-02-20T06:20:54;99389.47;;;7.60;83.73
21594;BME280;10959;51.328;7.322;2023-02-20T06:23:22;99385.06;;;7.58;83.25
21594;BME280;10959;51.328;7.322;2023-02-20T06:25:48;99373.59;;;7.53;83.10
21594;BME280;10959;51.328;7.322;2023-02-20T06:28:15;99371.81;;;7.53;83.99
21594;BME280;10959;51.328;7.322;2023-02-20T06:30:41;99384.31;;;7.53;84.17
21594;BME280;10959;51.328;7.322;2023-02-20T06:33:08;99383.31;;;7.57;83.54
21594;BME280;10959;51.328;7.322;2023-02-20T06:35:34;99390.34;;;7.61;83.53
21594;BME280;10959;51.328;7.322;2023-02-20T06:38:00;99400.97;;;7.64;83.43
21594;BME280;10959;51.328;7.322;2023-02-20T06:40:28;99399.97;;;7.68;83.14
21594;BME280;10959;51.328;7.322;2023-02-20T06:42:55;99399.06;;;7.69;83.21
21594;BME280;10959;51.328;7.322;2023-02-20T06:45:21;99402.72;;;7.65;83.04
21594;BME280;10959;51.328;7.322;2023-02-20T06:47:48;99411.59;;;7.67;83.31
21594;BME280;10959;51.328;7.322;2023-02-20T06:50:14;99410.63;;;7.70;82.81
21594;BME280;10959;51.328;7.322;2023-02-20T06:52:41;99415.22;;;7.66;83.35
21594;BME280;10959;51.328;7.322;2023-02-20T06:55:07;99422.16;;;7.73;83.09
21594;BME280;10959;51.328;7.322;2023-02-20T06:57:35;99433.84;;;7.71;82.89
21594;BME280;10959;51.328;7.322;2023-02-20T07:00:03;99434.72;;;7.71;83.23
21594;BME280;10959;51.328;7.322;2023-02-20T07:02:29;99432.81;;;7.76;82.82
21594;BME280;10959;51.328;7.322;2023-02-20T07:04:56;99442.75;;;7.71;83.16
21594;BME280;10959;51.328;7.322;2023-02-20T07:07:22;99444.56;;;7.71;83.69
21594;BME280;10959;51.328;7.322;2023-02-20T07:09:49;99455.28;;;7.71;83.27
21594;BME280;10959;51.328;7.322;2023-02-20T07:12:16;99465.88;;;7.75;83.69
21594;BME280;10959;51.328;7.322;2023-02-20T07:14:43;99463.38;;;7.69;83.68
21594;BME280;10959;51.328;7.322;2023-02-20T07:17:10;99458.09;;;7.66;83.87
21594;BME280;10959;51.328;7.322;2023-02-20T07:19:37;99465.75;;;7.47;84.11
21594;BME280;10959;51.328;7.322;2023-02-20T07:22:03;99459.44;;;7.50;84.38
21594;BME280;10959;51.328;7.322;2023-02-20T07:24:29;99458.44;;;7.54;84.05
21594;BME280;10959;51.328;7.322;2023-02-20T07:26:56;99451.38;;;7.50;83.76
21594;BME280;10959;51.328;7.322;2023-02-20T07:29:22;99460.16;;;7.56;84.11
21594;BME280;10959;51.328;7.322;2023-02-20T07:31:50;99461.97;;;7.54;83.65
21594;BME280;10959;51.328;7.322;2023-02-20T07:34:17;99455.84;;;7.51;83.73
21594;BME280;10959;51.328;7.322;2023-02-20T07:36:43;99451.22;;;7.56;84.20
21594;BME280;10959;51.328;7.322;2023-02-20T07:39:11;99460.03;;;7.61;84.04
21594;BME280;10959;51.328;7.322;2023-02-20T07:41:38;99447.47;;;7.63;84.01
21594;BME280;10959;51.328;7.322;2023-02-20T07:44:05;99457.44;;;7.58;83.89
21594;BME280;10959;51.328;7.322;2023-02-20T07:46:32;99447.50;;;7.61;83.61
21594;BME280;10959;51.328;7.322;2023-02-20T07:49:00;99457.25;;;7.64;83.40
21594;BME280;10959;51.328;7.322;2023-02-20T07:51:27;99451.78;;;7.69;83.77
21594;BME280;10959;51.328;7.322;2023-02-20T07:53:53;99465.38;;;7.61;83.34
21594;BME280;10959;51.328;7.322;2023-02-20T07:56:20;99454.75;;;7.58;83.92
21594;BME280;10959;51.328;7.322;2023-02-20T07:58:48;99456.44;;;7.62;83.38
21594;BME280;10959;51.328;7.322;2023-02-20T08:01:15;99444.75;;;7.65;83.73
21594;BME280;10959;51.328;7.322;2023-02-20T08:03:41;99465.16;;;7.70;83.63
21594;BME280;10959;51.328;7.322;2023-02-20T08:06:09;99455.53;;;7.61;83.22
21594;BME280;10959;51.328;7.322;2023-02-20T08:08:36;99456.34;;;7.65;83.90
21594;BME280;10959;51.328;7.322;2023-02-20T08:11:02;99456.16;;;7.71;83.61
21594;BME280;10959;51.328;7.322;2023-02-20T08:13:30;99463.19;;;7.75;83.39
21594;BME280;10959;51.328;7.322;2023-02-20T08:15:56;99463.91;;;7.82;83.58
21594;BME280;10959;51.328;7.322;2023-02-20T08:18:23;99466.50;;;7.85;82.83
21594;BME280;10959;51.328;7.322;2023-02-20T08:20:49;99473.59;;;7.88;82.66
21594;BME280;10959;51.328;7.322;2023-02-20T08:23:20;99470.00;;;7.89;82.98
21594;BME280;10959;51.328;7.322;2023-02-20T08:25:46;99477.09;;;7.90;83.11
21594;BME280;10959;51.328;7.322;2023-02-20T08:28:13;99463.66;;;7.91;83.30
21594;BME280;10959;51.328;7.322;2023-02-20T08:30:39;99459.97;;;7.95;82.81
21594;BME280;10959;51.328;7.322;2023-02-20T08:33:06;99465.41;;;7.92;83.17
21594;BME280;10959;51.328;7.322;2023-02-20T08:35:33;99462.69;;;7.94;83.03
21594;BME280;10959;51.328;7.322;2023-02-20T08:37:59;99469.63;;;8.01;82.68
21594;BME280;10959;51.328;7.322;2023-02-20T08:40:27;99467.72;;;8.06;83.10
21594;BME280;10959;51.328;7.322;2023-02-20T08:42:54;99475.00;;;8.01;82.87
21594;BME280;10959;51.328;7.322;2023-02-20T08:45:20;99461.53;;;8.03;82.89
21594;BME280;10959;51.328;7.322;2023-02-20T08:47:47;99449.84;;;8.05;82.32
21594;BME280;10959;51.328;7.322;2023-02-20T08:50:14;99453.38;;;8.07;82.59
21594;BME280;10959;51.328;7.322;2023-02-20T08:52:41;99458.75;;;8.07;82.64
21594;BME280;10959;51.328;7.322;2023-02-20T08:55:08;99463.25;;;8.05;82.31
21594;BME280;10959;51.328;7.322;2023-02-20T08:57:35;99455.22;;;8.05;82.38
21594;BME280;10959;51.328;7.322;2023-02-20T09:00:04;99444.41;;;8.08;82.47
21594;BME280;10959;51.328;7.322;2023-02-20T09:02:30;99449.09;;;8.02;82.52
21594;BME280;10959;51.328;7.322;2023-02-20T09:04:57;99446.34;;;8.03;82.73
21594;BME280;10959;51.328;7.322;2023-02-20T09:07:24;99446.25;;;8.06;82.78
21594;BME280;10959;51.328;7.322;2023-02-20T09:09:50;99440.78;;;8.09;82.97
21594;BME280;10959;51.328;7.322;2023-02-20T09:12:18;99436.34;;;8.08;82.99
21594;BME280;10959;51.328;7.322;2023-02-20T09:14:45;99448.28;;;7.98;82.69
21594;BME280;10959;51.328;7.322;2023-02-20T09:17:12;99447.16;;;8.05;83.00
21594;BME280;10959;51.328;7.322;2023-02-20T09:19:38;99444.50;;;8.05;82.67
21594;BME280;10959;51.328;7.322;2023-02-20T09:22:05;99449.03;;;8.03;83.26
21594;BME280;10959;51.328;7.322;2023-02-20T09:24:31;99437.28;;;8.07;82.78
21594;BME280;10959;51.328;7.322;2023-02-20T09:26:59;99446.06;;;8.12;82.56
21594;BME280;10959;51.328;7.322;2023-02-20T09:29:27;99440.69;;;8.12;82.88
21594;BME280;10959;51.328;7.322;2023-02-20T09:31:55;99441.50;;;8.16;82.96
21594;BME280;10959;51.328;7.322;2023-02-20T09:34:22;99436.31;;;8.10;82.63
21594;BME280;10959;51.328;7.322;2023-02-20T09:36:48;99440.78;;;8.09;82.72
21594;BME280;10959;51.328;7.322;2023-02-20T09:39:14;99445.97;;;8.16;82.93
21594;BME280;10959;51.328;7.322;2023-02-20T09:41:52;99442.56;;;8.10;82.59
21594;BME280;10959;51.328;7.322;2023-02-20T09:44:27;99444.25;;;8.15;82.48
21594;BME280;10959;51.328;7.322;2023-02-20T09:47:03;99449.59;;;8.15;82.50
21594;BME280;10959;51.328;7.322;2023-02-20T09:49:33;99459.22;;;8.22;82.63
21594;BME280;10959;51.328;7.322;2023-02-20T09:52:04;99450.38;;;8.18;82.24
21594;BME280;10959;51.328;7.322;2023-02-20T09:54:33;99459.28;;;8.19;82.45
21594;BME280;10959;51.328;7.322;2023-02-20T09:57:05;99445.16;;;8.13;82.37
21594;BME280;10959;51.328;7.322;2023-02-20T09:59:38;99450.63;;;8.10;82.43
21594;BME280;10959;51.328;7.322;2023-02-20T10:02:15;99446.41;;;8.00;82.84
21594;BME280;10959;51.328;7.322;2023-02-20T10:04:45;99442.47;;;8.13;83.23
21594;BME280;10959;51.328;7.322;2023-02-20T10:07:15;99445.97;;;8.16;82.99
21594;BME280;10959;51.328;7.322;2023-02-20T10:09:45;99439.50;;;8.23;82.72
21594;BME280;10959;51.328;7.322;2023-02-20T10:12:19;99441.47;;;8.18;82.75
21594;BME280;10959;51.328;7.322;2023-02-20T10:15:02;99431.94;;;8.07;82.95
21594;BME280;10959;51.328;7.322;2023-02-20T10:17:39;99431.84;;;8.10;83.32
21594;BME280;10959;51.328;7.322;2023-02-20T10:20:11;99436.91;;;8.20;83.06
21594;BME280;10959;51.328;7.322;2023-02-20T10:22:48;99422.94;;;8.08;82.85
21594;BME280;10959;51.328;7.322;2023-02-20T10:25:23;99421.00;;;8.13;83.47
21594;BME280;10959;51.328;7.322;2023-02-20T10:27:53;99415.34;;;8.23;83.58
21594;BME280;10959;51.328;7.322;2023-02-20T10:30:26;99408.31;;;8.19;83.09
21594;BME280;10959;51.328;7.322;2023-02-20T10:33:01;99410.19;;;8.17;82.89
21594;BME280;10959;51.328;7.322;2023-02-20T10:35:34;99401.13;;;8.21;83.04
21594;BME280;10959;51.328;7.322;2023-02-20T10:38:05;99408.38;;;8.17;83.16
21594;BME280;10959;51.328;7.322;2023-02-20T10:40:37;99404.91;;;8.13;83.50
21594;BME280;10959;51.328;7.322;2023-02-20T10:43:11;99383.66;;;8.07;84.00
21594;BME280;10959;51.328;7.322;2023-02-20T10:45:46;99377.25;;;8.11;83.75
21594;BME280;10959;51.328;7.322;2023-02-20T10:48:16;99383.09;;;8.26;83.93
21594;BME280;10959;51.328;7.322;2023-02-20T10:50:48;99358.47;;;8.11;83.97
21594;BME280;10959;51.328;7.322;2023-02-20T10:53:22;99367.06;;;8.23;83.68
21594;BME280;10959;51.328;7.322;2023-02-20T10:55:55;99370.41;;;8.31;83.62
21594;BME280;10959;51.328;7.322;2023-02-20T10:58:28;99363.75;;;8.43;83.72
21594;BME280;10959;51.328;7.322;2023-02-20T11:00:58;99371.63;;;8.51;83.91
21594;BME280;10959;51.328;7.322;2023-02-20T11:03:36;99376.19;;;8.47;83.50
21594;BME280;10959;51.328;7.322;2023-02-20T11:06:08;99379.41;;;8.58;83.64
21594;BME280;10959;51.328;7.322;2023-02-20T11:08:37;99384.28;;;8.74;84.04
21594;BME280;10959;51.328;7.322;2023-02-20T11:11:19;99383.81;;;8.61;83.35
21594;BME280;10959;51.328;7.322;2023-02-20T11:13:46;99384.75;;;8.87;83.96
21594;BME280;10959;51.328;7.322;2023-02-20T11:16:20;99369.81;;;8.78;83.02
21594;BME280;10959;51.328;7.322;2023-02-20T11:18:52;99361.94;;;8.73;83.56
21594;BME280;10959;51.328;7.322;2023-02-20T11:21:37;99357.75;;;8.64;83.42
21594;BME280;10959;51.328;7.322;2023-02-20T11:24:32;99353.47;;;8.59;83.48
21594;BME280;10959;51.328;7.322;2023-02-20T11:27:02;99347.16;;;8.87;83.30
21594;BME280;10959;51.328;7.322;2023-02-20T11:29:48;99338.38;;;8.81;83.13
21594;BME280;10959;51.328;7.322;2023-02-20T11:32:23;99312.97;;;8.92;83.73
21594;BME280;10959;51.328;7.322;2023-02-20T11:35:04;99311.72;;;8.75;83.05
21594;BME280;10959;51.328;7.322;2023-02-20T11:37:36;99314.63;;;8.96;84.06
21594;BME280;10959;51.328;7.322;2023-02-20T11:40:04;99325.03;;;9.05;83.22
21594;BME280;10959;51.328;7.322;2023-02-20T11:42:32;99348.19;;;9.09;83.37
21594;BME280;10959;51.328;7.322;2023-02-20T11:45:12;99359.44;;;8.94;83.57
21594;BME280;10959;51.328;7.322;2023-02-20T11:47:39;99357.78;;;9.16;83.40
21594;BME280;10959;51.328;7.322;2023-02-20T11:50:16;99357.38;;;9.02;83.43
21594;BME280;10959;51.328;7.322;2023-02-20T11:52:57;99362.75;;;9.02;83.38
21594;BME280;10959;51.328;7.322;2023-02-20T11:55:25;99367.38;;;9.24;82.75
21594;BME280;10959;51.328;7.322;2023-02-20T11:57:53;99358.28;;;9.28;82.99
21594;BME280;10959;51.328;7.322;2023-02-20T12:00:21;99358.28;;;9.28;82.93
21594;BME280;10959;51.328;7.322;2023-02-20T12:02:53;99374.41;;;9.28;82.76
21594;BME280;10959;51.328;7.322;2023-02-20T12:05:35;99368.81;;;9.09;82.82
21594;BME280;10959;51.328;7.322;2023-02-20T12:08:19;99369.88;;;9.03;82.07
21594;BME280;10959;51.328;7.322;2023-02-20T12:10:49;99379.09;;;9.21;82.95
21594;BME280;10959;51.328;7.322;2023-02-20T12:13:18;99371.59;;;9.31;82.82
21594;BME280;10959;51.328;7.322;2023-02-20T12:15:50;99358.38;;;9.25;82.69
21594;BME280;10959;51.328;7.322;2023-02-20T12:18:35;99352.28;;;9.20;82.46
21594;BME280;10959;51.328;7.322;2023-02-20T12:21:11;99360.34;;;9.20;82.49
21594;BME280;10959;51.328;7.322;2023-02-20T12:23:47;99363.88;;;9.22;82.39
21594;BME280;10959;51.328;7.322;2023-02-20T12:26:28;99367.38;;;9.24;82.46
21594;BME280;10959;51.328;7.322;2023-02-20T12:29:06;99369.25;;;9.22;82.29
21594;BME280;10959;51.328;7.322;2023-02-20T12:31:48;99356.94;;;9.14;82.38
21594;BME280;10959;51.328;7.322;2023-02-20T12:34:27;99369.56;;;9.12;82.57
21594;BME280;10959;51.328;7.322;2023-02-20T12:37:02;99353.31;;;9.15;82.57
21594;BME280;10959;51.328;7.322;2023-02-20T12:39:43;99354.97;;;9.20;82.22
21594;BME280;10959;51.328;7.322;2023-02-20T12:42:22;99353.31;;;9.15;82.17
21594;BME280;10959;51.328;7.322;2023-02-20T12:45:00;99348.06;;;9.12;82.30
21594;BME280;10959;51.328;7.322;2023-02-20T12:47:30;99332.72;;;9.16;82.90
21594;BME280;10959;51.328;7.322;2023-02-20T12:50:12;99339.09;;;9.13;82.54
21594;BME280;10959;51.328;7.322;2023-02-20T12:53:03;99355.19;;;9.13;82.45
21594;BME280;10959;51.328;7.322;2023-02-20T12:55:38;99362.63;;;9.05;82.93
21594;BME280;10959;51.328;7.322;2023-02-20T12:58:18;99350.13;;;9.04;82.81
21594;BME280;10959;51.328;7.322;2023-02-20T13:00:51;99337.25;;;9.14;83.20
21594;BME280;10959;51.328;7.322;2023-02-20T13:03:22;99338.75;;;9.23;82.80
21594;BME280;10959;51.328;7.322;2023-02-20T13:05:50;99322.31;;;9.32;83.13
21594;BME280;10959;51.328;7.322;2023-02-20T13:08:23;99319.94;;;9.23;83.16
21594;BME280;10959;51.328;7.322;2023-02-20T13:10:55;99314.13;;;9.35;82.91
21594;BME280;10959;51.328;7.322;2023-02-20T13:13:23;99302.09;;;9.45;83.05
21594;BME280;10959;51.328;7.322;2023-02-20T13:15:57;99313.19;;;9.36;82.40
21594;BME280;10959;51.328;7.322;2023-02-20T13:18:31;99291.53;;;9.41;82.71
21594;BME280;10959;51.328;7.322;2023-02-20T13:21:04;99264.34;;;9.48;83.08
21594;BME280;10959;51.328;7.322;2023-02-20T13:23:34;99266.22;;;9.46;82.54
21594;BME280;10959;51.328;7.322;2023-02-20T13:26:01;99269.84;;;9.45;82.37
21594;BME280;10959;51.328;7.322;2023-02-20T13:28:38;99280.47;;;9.25;82.74
21594;BME280;10959;51.328;7.322;2023-02-20T13:31:20;99265.03;;;9.30;82.64
21594;BME280;10959;51.328;7.322;2023-02-20T13:33:48;99253.81;;;9.42;82.68